Forside
METAR-TAF:

METAR-TAF

Lufthavne :

Chengdu Shuangliu International Airport

Chengdu, Kina

Breddekreds: 30-40N, længdekreds: 104-01E, højde: 508 m

Aktuelle vejr

Denne rapport blev lavet for 12 minutter siden, kl. 17:00 UTC
Vind 4 kt fra nord, varierende mellem nordnordvest og nordøst
Temperatur 26°C
Fugtighed 89%
Tryk 1002 hPa
Sigt 10 km eller mere
Nogle få skyer i en højde af 2600 ft
Spredte skyer i en højde af 5000 ft

METAR: ZUUU 251700Z 36002MPS 330V040 9999 FEW026 SCT050 26/24 Q1002 NOSIG

Tid: 01:12 (17:12 UTC)

Vejrudsigter

Denne rapport blev lavet for 8 timer og 58 minutter siden, kl. 08:14 UTC
Foreløbig gælder fra 25 på 12 UTC til 26 på 12 UTC
Vind 6 kt fra nordnordøst
Sigt: 5000 m
Spredte skyer i en højde af 4000 ft
dis
Midlertidig
fra 25 på 16 UTC til 25 på 18 UTC
Nogle få skyer i en højde af 3000 ft, Cumulonimbus.
Spredte skyer i en højde af 3000 ft
regnbyger

TAF: ZUUU 250814Z 2512/2612 02003MPS 5000 BR SCT040 TX29/2607Z TN24/2522Z TEMPO 2516/2518 SHRA FEW030CB SCT030

Vejrobservationer og prognoser fra mere end 4000 lufthavne (METAR og TAF).

De gule og røde prikker repræsenterer de meteorologiske stationer.

Flyt musen over at se navnet på stationen.

Så klik over at se vejr observationer og prognoser.

At skifte det kort: Klik på de grønne knapper med et sort kors for at zoome ind; på den grønne knap med en bindestreg for at zoome ud; eller på de grønne pile for tilstødende kort.


METAR-TAF: